sensor_id;sensor_type;location;lat;lon;timestamp;P1;durP1;ratioP1;P2;durP2;ratioP2
3006;SDS011;1513;47.650;10.720;2022-11-18T00:01:45;2.10;;;0.60;;
3006;SDS011;1513;47.650;10.720;2022-11-18T00:04:11;1.17;;;0.30;;
3006;SDS011;1513;47.650;10.720;2022-11-18T00:06:37;1.17;;;0.50;;
3006;SDS011;1513;47.650;10.720;2022-11-18T00:09:03;0.40;;;0.40;;
3006;SDS011;1513;47.650;10.720;2022-11-18T00:11:30;0.40;;;0.40;;
3006;SDS011;1513;47.650;10.720;2022-11-18T00:14:19;0.30;;;0.30;;
3006;SDS011;1513;47.650;10.720;2022-11-18T00:16:48;0.40;;;0.30;;
3006;SDS011;1513;47.650;10.720;2022-11-18T00:19:17;0.67;;;0.63;;
3006;SDS011;1513;47.650;10.720;2022-11-18T00:21:44;0.50;;;0.50;;
3006;SDS011;1513;47.650;10.720;2022-11-18T00:24:11;2.10;;;0.43;;
3006;SDS011;1513;47.650;10.720;2022-11-18T00:26:37;1.50;;;0.40;;
3006;SDS011;1513;47.650;10.720;2022-11-18T00:29:04;0.40;;;0.30;;
3006;SDS011;1513;47.650;10.720;2022-11-18T00:31:30;0.40;;;0.40;;
3006;SDS011;1513;47.650;10.720;2022-11-18T00:33:56;0.50;;;0.30;;
3006;SDS011;1513;47.650;10.720;2022-11-18T00:36:23;0.60;;;0.60;;
3006;SDS011;1513;47.650;10.720;2022-11-18T00:38:49;1.30;;;0.30;;
3006;SDS011;1513;47.650;10.720;2022-11-18T00:41:15;0.50;;;0.37;;
3006;SDS011;1513;47.650;10.720;2022-11-18T00:43:41;0.80;;;0.40;;
3006;SDS011;1513;47.650;10.720;2022-11-18T00:46:09;0.40;;;0.30;;
3006;SDS011;1513;47.650;10.720;2022-11-18T00:48:36;0.63;;;0.30;;
3006;SDS011;1513;47.650;10.720;2022-11-18T00:51:07;0.87;;;0.30;;
3006;SDS011;1513;47.650;10.720;2022-11-18T00:53:43;0.40;;;0.40;;
3006;SDS011;1513;47.650;10.720;2022-11-18T00:56:10;1.13;;;0.30;;
3006;SDS011;1513;47.650;10.720;2022-11-18T00:58:36;5.03;;;1.30;;
3006;SDS011;1513;47.650;10.720;2022-11-18T01:01:03;3.60;;;2.00;;
3006;SDS011;1513;47.650;10.720;2022-11-18T01:03:29;3.60;;;1.00;;
3006;SDS011;1513;47.650;10.720;2022-11-18T01:05:56;2.87;;;1.93;;
3006;SDS011;1513;47.650;10.720;2022-11-18T01:08:22;5.67;;;1.80;;
3006;SDS011;1513;47.650;10.720;2022-11-18T01:10:50;1.20;;;1.10;;
3006;SDS011;1513;47.650;10.720;2022-11-18T01:13:16;3.10;;;2.10;;
3006;SDS011;1513;47.650;10.720;2022-11-18T01:15:48;2.90;;;1.80;;
3006;SDS011;1513;47.650;10.720;2022-11-18T01:18:19;3.73;;;1.83;;
3006;SDS011;1513;47.650;10.720;2022-11-18T01:20:49;1.97;;;1.20;;
3006;SDS011;1513;47.650;10.720;2022-11-18T01:23:15;1.53;;;0.80;;
3006;SDS011;1513;47.650;10.720;2022-11-18T01:25:43;1.47;;;1.37;;
3006;SDS011;1513;47.650;10.720;2022-11-18T01:28:11;0.57;;;0.57;;
3006;SDS011;1513;47.650;10.720;2022-11-18T01:30:38;0.40;;;0.40;;
3006;SDS011;1513;47.650;10.720;2022-11-18T01:33:05;0.40;;;0.40;;
3006;SDS011;1513;47.650;10.720;2022-11-18T01:35:35;0.53;;;0.50;;
3006;SDS011;1513;47.650;10.720;2022-11-18T01:38:02;0.60;;;0.50;;
3006;SDS011;1513;47.650;10.720;2022-11-18T01:40:29;0.70;;;0.57;;
3006;SDS011;1513;47.650;10.720;2022-11-18T01:42:56;0.77;;;0.50;;
3006;SDS011;1513;47.650;10.720;2022-11-18T01:45:30;0.40;;;0.40;;
3006;SDS011;1513;47.650;10.720;2022-11-18T01:48:03;0.30;;;0.30;;
3006;SDS011;1513;47.650;10.720;2022-11-18T01:50:45;0.30;;;0.30;;
3006;SDS011;1513;47.650;10.720;2022-11-18T01:53:21;0.80;;;0.60;;
3006;SDS011;1513;47.650;10.720;2022-11-18T01:55:53;0.60;;;0.40;;
3006;SDS011;1513;47.650;10.720;2022-11-18T01:58:26;0.50;;;0.50;;
3006;SDS011;1513;47.650;10.720;2022-11-18T02:00:58;0.93;;;0.70;;
3006;SDS011;1513;47.650;10.720;2022-11-18T02:03:25;0.53;;;0.53;;
3006;SDS011;1513;47.650;10.720;2022-11-18T02:05:52;0.77;;;0.70;;
3006;SDS011;1513;47.650;10.720;2022-11-18T02:08:18;3.23;;;0.70;;
3006;SDS011;1513;47.650;10.720;2022-11-18T02:10:45;1.43;;;1.23;;
3006;SDS011;1513;47.650;10.720;2022-11-18T02:13:12;0.63;;;0.63;;
3006;SDS011;1513;47.650;10.720;2022-11-18T02:15:52;0.70;;;0.60;;
3006;SDS011;1513;47.650;10.720;2022-11-18T02:18:30;0.50;;;0.50;;
3006;SDS011;1513;47.650;10.720;2022-11-18T02:21:31;0.70;;;0.70;;
3006;SDS011;1513;47.650;10.720;2022-11-18T02:26:39;0.60;;;0.50;;
3006;SDS011;1513;47.650;10.720;2022-11-18T02:29:28;1.10;;;1.00;;
3006;SDS011;1513;47.650;10.720;2022-11-18T02:32:18;1.23;;;1.10;;
3006;SDS011;1513;47.650;10.720;2022-11-18T02:35:00;1.40;;;1.30;;
3006;SDS011;1513;47.650;10.720;2022-11-18T02:40:01;1.00;;;0.80;;
3006;SDS011;1513;47.650;10.720;2022-11-18T02:42:36;1.40;;;1.13;;
3006;SDS011;1513;47.650;10.720;2022-11-18T02:45:04;0.83;;;0.83;;
3006;SDS011;1513;47.650;10.720;2022-11-18T02:47:33;1.40;;;1.07;;
3006;SDS011;1513;47.650;10.720;2022-11-18T02:50:02;1.27;;;1.17;;
3006;SDS011;1513;47.650;10.720;2022-11-18T02:52:33;3.60;;;1.27;;
3006;SDS011;1513;47.650;10.720;2022-11-18T02:55:02;1.10;;;0.90;;
3006;SDS011;1513;47.650;10.720;2022-11-18T02:57:29;0.53;;;0.53;;
3006;SDS011;1513;47.650;10.720;2022-11-18T02:59:58;0.80;;;0.40;;
3006;SDS011;1513;47.650;10.720;2022-11-18T03:02:24;0.60;;;0.50;;
3006;SDS011;1513;47.650;10.720;2022-11-18T03:04:52;0.70;;;0.50;;
3006;SDS011;1513;47.650;10.720;2022-11-18T03:09:53;1.17;;;0.50;;
3006;SDS011;1513;47.650;10.720;2022-11-18T03:15:23;0.40;;;0.30;;
3006;SDS011;1513;47.650;10.720;2022-11-18T03:20:52;0.50;;;0.30;;
3006;SDS011;1513;47.650;10.720;2022-11-18T03:23:29;0.40;;;0.40;;
3006;SDS011;1513;47.650;10.720;2022-11-18T03:28:35;0.30;;;0.30;;
3006;SDS011;1513;47.650;10.720;2022-11-18T03:31:18;1.17;;;0.40;;
3006;SDS011;1513;47.650;10.720;2022-11-18T03:33:49;0.80;;;0.30;;
3006;SDS011;1513;47.650;10.720;2022-11-18T03:36:19;3.27;;;0.40;;
3006;SDS011;1513;47.650;10.720;2022-11-18T03:38:49;0.40;;;0.30;;
3006;SDS011;1513;47.650;10.720;2022-11-18T03:41:17;0.67;;;0.30;;
3006;SDS011;1513;47.650;10.720;2022-11-18T03:43:49;0.80;;;0.30;;
3006;SDS011;1513;47.650;10.720;2022-11-18T03:46:26;0.37;;;0.30;;
3006;SDS011;1513;47.650;10.720;2022-11-18T03:48:56;0.40;;;0.30;;
3006;SDS011;1513;47.650;10.720;2022-11-18T03:51:58;0.40;;;0.30;;
3006;SDS011;1513;47.650;10.720;2022-11-18T03:54:22;0.40;;;0.30;;
3006;SDS011;1513;47.650;10.720;2022-11-18T03:56:52;0.40;;;0.30;;
3006;SDS011;1513;47.650;10.720;2022-11-18T03:59:31;0.30;;;0.30;;
3006;SDS011;1513;47.650;10.720;2022-11-18T04:02:07;0.30;;;0.30;;
3006;SDS011;1513;47.650;10.720;2022-11-18T04:04:35;1.10;;;0.47;;
3006;SDS011;1513;47.650;10.720;2022-11-18T04:07:10;0.40;;;0.40;;
3006;SDS011;1513;47.650;10.720;2022-11-18T04:09:44;0.40;;;0.37;;
3006;SDS011;1513;47.650;10.720;2022-11-18T04:12:14;0.50;;;0.40;;
3006;SDS011;1513;47.650;10.720;2022-11-18T04:14:42;0.40;;;0.30;;
3006;SDS011;1513;47.650;10.720;2022-11-18T04:17:13;0.30;;;0.30;;
3006;SDS011;1513;47.650;10.720;2022-11-18T04:19:41;0.40;;;0.30;;
3006;SDS011;1513;47.650;10.720;2022-11-18T04:22:07;0.30;;;0.30;;
3006;SDS011;1513;47.650;10.720;2022-11-18T04:24:34;0.30;;;0.30;;
3006;SDS011;1513;47.650;10.720;2022-11-18T04:27:01;0.30;;;0.20;;
3006;SDS011;1513;47.650;10.720;2022-11-18T04:29:28;0.40;;;0.30;;
3006;SDS011;1513;47.650;10.720;2022-11-18T04:31:55;0.60;;;0.30;;
3006;SDS011;1513;47.650;10.720;2022-11-18T04:34:21;0.37;;;0.30;;
3006;SDS011;1513;47.650;10.720;2022-11-18T04:36:47;0.30;;;0.30;;
3006;SDS011;1513;47.650;10.720;2022-11-18T04:39:13;0.30;;;0.30;;
3006;SDS011;1513;47.650;10.720;2022-11-18T04:41:42;0.30;;;0.30;;
3006;SDS011;1513;47.650;10.720;2022-11-18T04:44:25;0.30;;;0.20;;
3006;SDS011;1513;47.650;10.720;2022-11-18T04:46:53;0.40;;;0.30;;
3006;SDS011;1513;47.650;10.720;2022-11-18T04:49:20;0.40;;;0.30;;
3006;SDS011;1513;47.650;10.720;2022-11-18T04:51:47;0.40;;;0.30;;
3006;SDS011;1513;47.650;10.720;2022-11-18T04:54:14;0.30;;;0.20;;
3006;SDS011;1513;47.650;10.720;2022-11-18T04:56:41;0.30;;;0.30;;
3006;SDS011;1513;47.650;10.720;2022-11-18T04:59:08;0.30;;;0.23;;
3006;SDS011;1513;47.650;10.720;2022-11-18T05:01:35;0.30;;;0.20;;
3006;SDS011;1513;47.650;10.720;2022-11-18T05:04:02;0.40;;;0.30;;
3006;SDS011;1513;47.650;10.720;2022-11-18T05:06:29;0.50;;;0.50;;
3006;SDS011;1513;47.650;10.720;2022-11-18T05:08:57;0.40;;;0.30;;
3006;SDS011;1513;47.650;10.720;2022-11-18T05:11:24;0.40;;;0.30;;
3006;SDS011;1513;47.650;10.720;2022-11-18T05:14:09;0.30;;;0.30;;
3006;SDS011;1513;47.650;10.720;2022-11-18T05:16:36;0.30;;;0.30;;
3006;SDS011;1513;47.650;10.720;2022-11-18T05:19:03;1.77;;;0.70;;
3006;SDS011;1513;47.650;10.720;2022-11-18T05:21:30;0.40;;;0.30;;
3006;SDS011;1513;47.650;10.720;2022-11-18T05:23:59;0.30;;;0.30;;
3006;SDS011;1513;47.650;10.720;2022-11-18T05:26:26;0.30;;;0.30;;
3006;SDS011;1513;47.650;10.720;2022-11-18T05:28:52;0.40;;;0.30;;
3006;SDS011;1513;47.650;10.720;2022-11-18T05:31:18;0.40;;;0.30;;
3006;SDS011;1513;47.650;10.720;2022-11-18T05:33:45;0.40;;;0.30;;
3006;SDS011;1513;47.650;10.720;2022-11-18T05:36:12;0.50;;;0.50;;
3006;SDS011;1513;47.650;10.720;2022-11-18T05:38:39;0.30;;;0.30;;
3006;SDS011;1513;47.650;10.720;2022-11-18T05:41:06;0.30;;;0.30;;
3006;SDS011;1513;47.650;10.720;2022-11-18T05:43:33;0.30;;;0.30;;
3006;SDS011;1513;47.650;10.720;2022-11-18T05:46:01;0.30;;;0.20;;
3006;SDS011;1513;47.650;10.720;2022-11-18T05:48:27;0.40;;;0.30;;
3006;SDS011;1513;47.650;10.720;2022-11-18T05:50:54;1.13;;;0.53;;
3006;SDS011;1513;47.650;10.720;2022-11-18T05:53:22;2.10;;;0.40;;
3006;SDS011;1513;47.650;10.720;2022-11-18T05:58:39;0.50;;;0.50;;
3006;SDS011;1513;47.650;10.720;2022-11-18T06:01:05;0.50;;;0.30;;
3006;SDS011;1513;47.650;10.720;2022-11-18T06:03:32;0.40;;;0.40;;
3006;SDS011;1513;47.650;10.720;2022-11-18T06:06:01;1.77;;;0.90;;
3006;SDS011;1513;47.650;10.720;2022-11-18T06:08:29;2.37;;;1.30;;
3006;SDS011;1513;47.650;10.720;2022-11-18T06:11:09;4.77;;;1.90;;
3006;SDS011;1513;47.650;10.720;2022-11-18T06:13:41;4.23;;;2.40;;
3006;SDS011;1513;47.650;10.720;2022-11-18T06:16:15;6.67;;;4.27;;
3006;SDS011;1513;47.650;10.720;2022-11-18T06:18:42;1.93;;;1.63;;
3006;SDS011;1513;47.650;10.720;2022-11-18T06:21:09;2.87;;;1.40;;
3006;SDS011;1513;47.650;10.720;2022-11-18T06:23:35;1.70;;;1.30;;
3006;SDS011;1513;47.650;10.720;2022-11-18T06:26:02;0.93;;;0.83;;
3006;SDS011;1513;47.650;10.720;2022-11-18T06:28:29;1.03;;;0.93;;
3006;SDS011;1513;47.650;10.720;2022-11-18T06:30:55;0.77;;;0.70;;
3006;SDS011;1513;47.650;10.720;2022-11-18T06:33:23;0.40;;;0.40;;
3006;SDS011;1513;47.650;10.720;2022-11-18T06:35:49;0.40;;;0.30;;
3006;SDS011;1513;47.650;10.720;2022-11-18T06:38:15;0.50;;;0.50;;
3006;SDS011;1513;47.650;10.720;2022-11-18T06:40:41;0.40;;;0.40;;
3006;SDS011;1513;47.650;10.720;2022-11-18T06:43:09;0.40;;;0.40;;
3006;SDS011;1513;47.650;10.720;2022-11-18T06:45:58;1.80;;;0.77;;
3006;SDS011;1513;47.650;10.720;2022-11-18T06:48:43;1.37;;;0.70;;
3006;SDS011;1513;47.650;10.720;2022-11-18T06:51:10;1.10;;;1.00;;
3006;SDS011;1513;47.650;10.720;2022-11-18T06:53:36;0.50;;;0.50;;
3006;SDS011;1513;47.650;10.720;2022-11-18T06:56:03;0.50;;;0.50;;
3006;SDS011;1513;47.650;10.720;2022-11-18T06:58:30;0.40;;;0.40;;
3006;SDS011;1513;47.650;10.720;2022-11-18T07:00:57;0.77;;;0.40;;
3006;SDS011;1513;47.650;10.720;2022-11-18T07:03:24;0.40;;;0.30;;
3006;SDS011;1513;47.650;10.720;2022-11-18T07:05:50;0.40;;;0.37;;
3006;SDS011;1513;47.650;10.720;2022-11-18T07:08:16;0.40;;;0.40;;
3006;SDS011;1513;47.650;10.720;2022-11-18T07:10:50;0.83;;;0.53;;
3006;SDS011;1513;47.650;10.720;2022-11-18T07:13:17;1.87;;;0.93;;
3006;SDS011;1513;47.650;10.720;2022-11-18T07:15:43;1.47;;;1.37;;
3006;SDS011;1513;47.650;10.720;2022-11-18T07:18:09;2.13;;;1.50;;
3006;SDS011;1513;47.650;10.720;2022-11-18T07:20:35;1.20;;;1.10;;
3006;SDS011;1513;47.650;10.720;2022-11-18T07:23:02;0.93;;;0.93;;
3006;SDS011;1513;47.650;10.720;2022-11-18T07:25:28;4.00;;;0.60;;
3006;SDS011;1513;47.650;10.720;2022-11-18T07:27:54;0.60;;;0.60;;
3006;SDS011;1513;47.650;10.720;2022-11-18T07:30:20;0.60;;;0.60;;
3006;SDS011;1513;47.650;10.720;2022-11-18T07:32:46;1.30;;;1.20;;
3006;SDS011;1513;47.650;10.720;2022-11-18T07:35:13;1.90;;;1.20;;
3006;SDS011;1513;47.650;10.720;2022-11-18T07:37:41;0.80;;;0.80;;
3006;SDS011;1513;47.650;10.720;2022-11-18T07:40:07;0.60;;;0.60;;
3006;SDS011;1513;47.650;10.720;2022-11-18T07:42:34;0.60;;;0.60;;
3006;SDS011;1513;47.650;10.720;2022-11-18T07:45:20;0.90;;;0.50;;
3006;SDS011;1513;47.650;10.720;2022-11-18T07:47:47;0.50;;;0.50;;
3006;SDS011;1513;47.650;10.720;2022-11-18T07:50:14;0.40;;;0.30;;
3006;SDS011;1513;47.650;10.720;2022-11-18T07:52:41;0.40;;;0.30;;
3006;SDS011;1513;47.650;10.720;2022-11-18T07:55:08;0.40;;;0.30;;
3006;SDS011;1513;47.650;10.720;2022-11-18T07:57:34;0.40;;;0.30;;
3006;SDS011;1513;47.650;10.720;2022-11-18T08:00:00;0.40;;;0.30;;
3006;SDS011;1513;47.650;10.720;2022-11-18T08:02:37;0.30;;;0.27;;
3006;SDS011;1513;47.650;10.720;2022-11-18T08:05:03;0.40;;;0.30;;
3006;SDS011;1513;47.650;10.720;2022-11-18T08:07:30;0.30;;;0.30;;
3006;SDS011;1513;47.650;10.720;2022-11-18T08:09:56;0.40;;;0.40;;
3006;SDS011;1513;47.650;10.720;2022-11-18T08:12:22;0.30;;;0.30;;
3006;SDS011;1513;47.650;10.720;2022-11-18T08:14:48;0.30;;;0.30;;
3006;SDS011;1513;47.650;10.720;2022-11-18T08:17:15;0.50;;;0.40;;
3006;SDS011;1513;47.650;10.720;2022-11-18T08:19:41;2.50;;;0.40;;
3006;SDS011;1513;47.650;10.720;2022-11-18T08:22:07;0.40;;;0.30;;
3006;SDS011;1513;47.650;10.720;2022-11-18T08:24:34;0.40;;;0.40;;
3006;SDS011;1513;47.650;10.720;2022-11-18T08:27:00;0.43;;;0.37;;
3006;SDS011;1513;47.650;10.720;2022-11-18T08:29:26;0.43;;;0.43;;
3006;SDS011;1513;47.650;10.720;2022-11-18T08:31:52;0.37;;;0.30;;
3006;SDS011;1513;47.650;10.720;2022-11-18T08:34:19;0.40;;;0.30;;
3006;SDS011;1513;47.650;10.720;2022-11-18T08:36:45;0.40;;;0.30;;
3006;SDS011;1513;47.650;10.720;2022-11-18T08:39:11;0.40;;;0.30;;
3006;SDS011;1513;47.650;10.720;2022-11-18T08:41:38;0.43;;;0.40;;
3006;SDS011;1513;47.650;10.720;2022-11-18T08:44:06;0.50;;;0.40;;
3006;SDS011;1513;47.650;10.720;2022-11-18T08:46:37;1.07;;;0.70;;
3006;SDS011;1513;47.650;10.720;2022-11-18T08:49:04;3.23;;;1.40;;
3006;SDS011;1513;47.650;10.720;2022-11-18T08:51:30;1.13;;;0.87;;
3006;SDS011;1513;47.650;10.720;2022-11-18T08:53:57;10.07;;;3.40;;
3006;SDS011;1513;47.650;10.720;2022-11-18T08:56:23;4.80;;;1.90;;
3006;SDS011;1513;47.650;10.720;2022-11-18T08:58:50;3.17;;;1.53;;
3006;SDS011;1513;47.650;10.720;2022-11-18T09:01:16;4.90;;;2.20;;
3006;SDS011;1513;47.650;10.720;2022-11-18T09:03:42;3.20;;;1.60;;
3006;SDS011;1513;47.650;10.720;2022-11-18T09:06:10;27.33;;;8.37;;
3006;SDS011;1513;47.650;10.720;2022-11-18T09:08:38;6.10;;;2.47;;
3006;SDS011;1513;47.650;10.720;2022-11-18T09:11:09;1.53;;;1.43;;
3006;SDS011;1513;47.650;10.720;2022-11-18T09:13:37;0.90;;;0.87;;
3006;SDS011;1513;47.650;10.720;2022-11-18T09:16:03;0.60;;;0.60;;
3006;SDS011;1513;47.650;10.720;2022-11-18T09:18:30;0.50;;;0.47;;
3006;SDS011;1513;47.650;10.720;2022-11-18T09:20:58;0.57;;;0.57;;
3006;SDS011;1513;47.650;10.720;2022-11-18T09:23:26;0.80;;;0.70;;
3006;SDS011;1513;47.650;10.720;2022-11-18T09:26:12;0.60;;;0.60;;
3006;SDS011;1513;47.650;10.720;2022-11-18T09:28:40;0.40;;;0.40;;
3006;SDS011;1513;47.650;10.720;2022-11-18T09:31:07;0.40;;;0.40;;
3006;SDS011;1513;47.650;10.720;2022-11-18T09:33:34;0.63;;;0.43;;
3006;SDS011;1513;47.650;10.720;2022-11-18T09:36:02;0.80;;;0.60;;
3006;SDS011;1513;47.650;10.720;2022-11-18T09:38:29;0.90;;;0.90;;
3006;SDS011;1513;47.650;10.720;2022-11-18T09:43:52;2.17;;;1.70;;
3006;SDS011;1513;47.650;10.720;2022-11-18T09:49:01;2.10;;;1.10;;
3006;SDS011;1513;47.650;10.720;2022-11-18T09:51:38;0.70;;;0.70;;
3006;SDS011;1513;47.650;10.720;2022-11-18T09:54:19;0.80;;;0.80;;
3006;SDS011;1513;47.650;10.720;2022-11-18T09:56:55;0.90;;;0.70;;
3006;SDS011;1513;47.650;10.720;2022-11-18T09:59:23;1.33;;;1.17;;
3006;SDS011;1513;47.650;10.720;2022-11-18T10:01:52;1.30;;;1.20;;
3006;SDS011;1513;47.650;10.720;2022-11-18T10:04:20;1.30;;;1.20;;
3006;SDS011;1513;47.650;10.720;2022-11-18T10:06:47;1.13;;;1.00;;
3006;SDS011;1513;47.650;10.720;2022-11-18T10:14:56;2.30;;;2.00;;
3006;SDS011;1513;47.650;10.720;2022-11-18T10:17:45;1.30;;;1.20;;
3006;SDS011;1513;47.650;10.720;2022-11-18T10:20:22;2.10;;;1.87;;
3006;SDS011;1513;47.650;10.720;2022-11-18T10:25:37;1.43;;;0.90;;
3006;SDS011;1513;47.650;10.720;2022-11-18T10:30:49;2.10;;;1.07;;
3006;SDS011;1513;47.650;10.720;2022-11-18T10:33:17;0.80;;;0.80;;
3006;SDS011;1513;47.650;10.720;2022-11-18T10:35:46;4.63;;;1.63;;
3006;SDS011;1513;47.650;10.720;2022-11-18T10:40:43;2.60;;;1.73;;
3006;SDS011;1513;47.650;10.720;2022-11-18T10:43:11;2.90;;;2.10;;
3006;SDS011;1513;47.650;10.720;2022-11-18T10:46:12;1.17;;;1.07;;
3006;SDS011;1513;47.650;10.720;2022-11-18T10:48:46;1.33;;;1.10;;
3006;SDS011;1513;47.650;10.720;2022-11-18T10:51:19;3.03;;;1.47;;
3006;SDS011;1513;47.650;10.720;2022-11-18T10:53:47;1.93;;;1.70;;
3006;SDS011;1513;47.650;10.720;2022-11-18T10:56:14;2.70;;;1.73;;
3006;SDS011;1513;47.650;10.720;2022-11-18T10:58:44;11.90;;;6.27;;
3006;SDS011;1513;47.650;10.720;2022-11-18T11:01:18;9.77;;;5.60;;
3006;SDS011;1513;47.650;10.720;2022-11-18T11:03:54;12.07;;;6.07;;
3006;SDS011;1513;47.650;10.720;2022-11-18T11:06:57;8.23;;;5.23;;
3006;SDS011;1513;47.650;10.720;2022-11-18T11:09:50;5.47;;;4.00;;
3006;SDS011;1513;47.650;10.720;2022-11-18T11:12:16;2.00;;;1.40;;
3006;SDS011;1513;47.650;10.720;2022-11-18T11:17:28;3.70;;;2.10;;
3006;SDS011;1513;47.650;10.720;2022-11-18T11:20:34;3.00;;;1.70;;
3006;SDS011;1513;47.650;10.720;2022-11-18T11:23:06;1.93;;;1.60;;
3006;SDS011;1513;47.650;10.720;2022-11-18T11:29:00;10.93;;;4.80;;
3006;SDS011;1513;47.650;10.720;2022-11-18T11:34:23;4.43;;;2.80;;
3006;SDS011;1513;47.650;10.720;2022-11-18T12:04:22;5.00;;;2.80;;
3006;SDS011;1513;47.650;10.720;2022-11-18T12:07:05;11.67;;;3.40;;
3006;SDS011;1513;47.650;10.720;2022-11-18T12:09:38;5.40;;;2.43;;
3006;SDS011;1513;47.650;10.720;2022-11-18T12:12:12;5.23;;;2.10;;
3006;SDS011;1513;47.650;10.720;2022-11-18T12:23:15;4.63;;;1.80;;
3006;SDS011;1513;47.650;10.720;2022-11-18T12:28:24;11.97;;;4.87;;
3006;SDS011;1513;47.650;10.720;2022-11-18T12:33:47;4.23;;;2.30;;
3006;SDS011;1513;47.650;10.720;2022-11-18T12:36:24;16.50;;;4.87;;
3006;SDS011;1513;47.650;10.720;2022-11-18T12:38:51;5.70;;;3.90;;
3006;SDS011;1513;47.650;10.720;2022-11-18T12:44:22;6.23;;;2.80;;
3006;SDS011;1513;47.650;10.720;2022-11-18T12:46:51;5.60;;;3.03;;
3006;SDS011;1513;47.650;10.720;2022-11-18T12:51:51;8.70;;;5.07;;
3006;SDS011;1513;47.650;10.720;2022-11-18T12:54:29;5.27;;;3.40;;
3006;SDS011;1513;47.650;10.720;2022-11-18T12:57:03;7.70;;;4.00;;
3006;SDS011;1513;47.650;10.720;2022-11-18T12:59:43;5.43;;;3.23;;
3006;SDS011;1513;47.650;10.720;2022-11-18T13:04:39;4.67;;;2.83;;
3006;SDS011;1513;47.650;10.720;2022-11-18T13:07:08;2.90;;;2.07;;
3006;SDS011;1513;47.650;10.720;2022-11-18T13:09:54;3.90;;;3.20;;
3006;SDS011;1513;47.650;10.720;2022-11-18T13:12:21;3.80;;;3.50;;
3006;SDS011;1513;47.650;10.720;2022-11-18T13:14:51;2.20;;;1.90;;
3006;SDS011;1513;47.650;10.720;2022-11-18T13:17:40;3.77;;;2.50;;
3006;SDS011;1513;47.650;10.720;2022-11-18T13:20:38;2.57;;;2.07;;
3006;SDS011;1513;47.650;10.720;2022-11-18T13:23:14;1.70;;;1.60;;
3006;SDS011;1513;47.650;10.720;2022-11-18T13:32:01;1.50;;;1.40;;
3006;SDS011;1513;47.650;10.720;2022-11-18T13:34:39;2.33;;;1.57;;
3006;SDS011;1513;47.650;10.720;2022-11-18T13:37:19;5.83;;;2.80;;
3006;SDS011;1513;47.650;10.720;2022-11-18T13:39:48;7.10;;;3.30;;
3006;SDS011;1513;47.650;10.720;2022-11-18T13:44:54;2.93;;;2.60;;
3006;SDS011;1513;47.650;10.720;2022-11-18T13:52:53;18.07;;;5.60;;
3006;SDS011;1513;47.650;10.720;2022-11-18T13:55:24;8.93;;;3.40;;
3006;SDS011;1513;47.650;10.720;2022-11-18T13:58:00;3.30;;;1.70;;
3006;SDS011;1513;47.650;10.720;2022-11-18T14:00:32;4.40;;;2.73;;
3006;SDS011;1513;47.650;10.720;2022-11-18T14:03:03;5.03;;;2.80;;
3006;SDS011;1513;47.650;10.720;2022-11-18T14:05:54;7.60;;;4.13;;
3006;SDS011;1513;47.650;10.720;2022-11-18T14:08:26;2.50;;;1.90;;
3006;SDS011;1513;47.650;10.720;2022-11-18T14:10:56;6.60;;;4.47;;
3006;SDS011;1513;47.650;10.720;2022-11-18T14:13:25;32.27;;;8.57;;
3006;SDS011;1513;47.650;10.720;2022-11-18T14:16:03;5.70;;;2.30;;
3006;SDS011;1513;47.650;10.720;2022-11-18T14:18:49;21.67;;;7.13;;
3006;SDS011;1513;47.650;10.720;2022-11-18T14:21:28;5.00;;;3.23;;
3006;SDS011;1513;47.650;10.720;2022-11-18T14:23:56;9.43;;;5.20;;
3006;SDS011;1513;47.650;10.720;2022-11-18T14:26:26;5.03;;;3.00;;
3006;SDS011;1513;47.650;10.720;2022-11-18T14:28:55;3.40;;;2.40;;
3006;SDS011;1513;47.650;10.720;2022-11-18T14:31:27;6.97;;;3.80;;
3006;SDS011;1513;47.650;10.720;2022-11-18T14:36:32;3.17;;;2.57;;
3006;SDS011;1513;47.650;10.720;2022-11-18T14:38:58;2.07;;;1.87;;
3006;SDS011;1513;47.650;10.720;2022-11-18T14:41:24;2.93;;;2.13;;
3006;SDS011;1513;47.650;10.720;2022-11-18T14:44:09;4.73;;;2.60;;
3006;SDS011;1513;47.650;10.720;2022-11-18T14:46:37;4.03;;;2.80;;
3006;SDS011;1513;47.650;10.720;2022-11-18T14:49:05;2.13;;;1.97;;
3006;SDS011;1513;47.650;10.720;2022-11-18T14:51:36;1.40;;;1.40;;
3006;SDS011;1513;47.650;10.720;2022-11-18T14:54:03;1.10;;;1.10;;
3006;SDS011;1513;47.650;10.720;2022-11-18T14:56:30;2.00;;;1.67;;
3006;SDS011;1513;47.650;10.720;2022-11-18T14:58:57;2.13;;;1.10;;
3006;SDS011;1513;47.650;10.720;2022-11-18T15:01:23;1.63;;;1.53;;
3006;SDS011;1513;47.650;10.720;2022-11-18T15:03:51;2.37;;;2.17;;
3006;SDS011;1513;47.650;10.720;2022-11-18T15:06:18;3.60;;;3.30;;
3006;SDS011;1513;47.650;10.720;2022-11-18T15:08:46;3.70;;;2.90;;
3006;SDS011;1513;47.650;10.720;2022-11-18T15:11:14;5.23;;;3.90;;
3006;SDS011;1513;47.650;10.720;2022-11-18T15:13:40;10.00;;;6.10;;
3006;SDS011;1513;47.650;10.720;2022-11-18T15:16:14;10.33;;;5.70;;
3006;SDS011;1513;47.650;10.720;2022-11-18T15:18:41;9.23;;;5.67;;
3006;SDS011;1513;47.650;10.720;2022-11-18T15:21:08;6.50;;;4.77;;
3006;SDS011;1513;47.650;10.720;2022-11-18T15:23:34;6.80;;;4.83;;
3006;SDS011;1513;47.650;10.720;2022-11-18T15:26:01;9.00;;;4.90;;
3006;SDS011;1513;47.650;10.720;2022-11-18T15:28:30;24.40;;;10.77;;
3006;SDS011;1513;47.650;10.720;2022-11-18T15:30:56;27.17;;;11.60;;
3006;SDS011;1513;47.650;10.720;2022-11-18T15:33:22;33.13;;;12.80;;
3006;SDS011;1513;47.650;10.720;2022-11-18T15:35:49;25.33;;;12.10;;
3006;SDS011;1513;47.650;10.720;2022-11-18T15:38:15;28.20;;;10.20;;
3006;SDS011;1513;47.650;10.720;2022-11-18T15:40:41;24.00;;;9.37;;
3006;SDS011;1513;47.650;10.720;2022-11-18T15:43:07;36.03;;;13.20;;
3006;SDS011;1513;47.650;10.720;2022-11-18T15:45:33;35.33;;;14.10;;
3006;SDS011;1513;47.650;10.720;2022-11-18T15:47:59;29.03;;;9.60;;
3006;SDS011;1513;47.650;10.720;2022-11-18T15:50:26;28.40;;;9.40;;
3006;SDS011;1513;47.650;10.720;2022-11-18T15:52:52;18.67;;;6.27;;
3006;SDS011;1513;47.650;10.720;2022-11-18T15:55:19;9.50;;;4.30;;
3006;SDS011;1513;47.650;10.720;2022-11-18T15:57:46;5.97;;;3.30;;
3006;SDS011;1513;47.650;10.720;2022-11-18T16:00:12;5.33;;;2.70;;
3006;SDS011;1513;47.650;10.720;2022-11-18T16:02:38;2.90;;;2.57;;
3006;SDS011;1513;47.650;10.720;2022-11-18T16:05:05;4.27;;;2.70;;
3006;SDS011;1513;47.650;10.720;2022-11-18T16:07:31;6.47;;;3.60;;
3006;SDS011;1513;47.650;10.720;2022-11-18T16:09:57;15.77;;;6.10;;
3006;SDS011;1513;47.650;10.720;2022-11-18T16:12:42;45.60;;;10.20;;
3006;SDS011;1513;47.650;10.720;2022-11-18T16:15:12;12.83;;;6.50;;
3006;SDS011;1513;47.650;10.720;2022-11-18T16:17:57;11.80;;;5.20;;
3006;SDS011;1513;47.650;10.720;2022-11-18T16:20:24;2.33;;;2.13;;
3006;SDS011;1513;47.650;10.720;2022-11-18T16:22:51;4.73;;;2.20;;
3006;SDS011;1513;47.650;10.720;2022-11-18T16:25:18;8.73;;;3.27;;
3006;SDS011;1513;47.650;10.720;2022-11-18T16:27:45;7.17;;;3.13;;
3006;SDS011;1513;47.650;10.720;2022-11-18T16:30:11;10.00;;;5.27;;
3006;SDS011;1513;47.650;10.720;2022-11-18T16:32:58;4.00;;;2.47;;
3006;SDS011;1513;47.650;10.720;2022-11-18T16:35:24;9.97;;;5.10;;
3006;SDS011;1513;47.650;10.720;2022-11-18T16:37:52;11.40;;;5.80;;
3006;SDS011;1513;47.650;10.720;2022-11-18T16:40:18;17.23;;;8.03;;
3006;SDS011;1513;47.650;10.720;2022-11-18T16:42:51;9.60;;;5.53;;
3006;SDS011;1513;47.650;10.720;2022-11-18T16:45:17;22.90;;;9.63;;
3006;SDS011;1513;47.650;10.720;2022-11-18T16:47:44;9.03;;;4.30;;
3006;SDS011;1513;47.650;10.720;2022-11-18T16:50:10;6.93;;;4.03;;
3006;SDS011;1513;47.650;10.720;2022-11-18T16:52:37;5.10;;;2.73;;
3006;SDS011;1513;47.650;10.720;2022-11-18T16:55:03;1.63;;;1.40;;
3006;SDS011;1513;47.650;10.720;2022-11-18T16:57:29;2.67;;;2.40;;
3006;SDS011;1513;47.650;10.720;2022-11-18T16:59:56;9.07;;;5.63;;
3006;SDS011;1513;47.650;10.720;2022-11-18T17:02:22;5.20;;;4.10;;
3006;SDS011;1513;47.650;10.720;2022-11-18T17:04:48;2.77;;;2.50;;
3006;SDS011;1513;47.650;10.720;2022-11-18T17:07:14;3.60;;;2.10;;
3006;SDS011;1513;47.650;10.720;2022-11-18T17:09:41;9.17;;;3.27;;
3006;SDS011;1513;47.650;10.720;2022-11-18T17:12:08;4.10;;;2.97;;